F/V Carmalia — FMFK — position and weather

sailwx.info

Track history (hours):
 
Tides and Currents Weather Stations Pressure Air Temp Water Temp Dewpoint Dewpoint Depression Visibility Wind Speed Wind Dir Waves Ship Positions

F/V Carmalia

Last reported at 2017-Aug-18 18:09 UTC. Time now 2017-Aug-19 20:27 UTC.
Position N 47°23' W 003°42'.

Length 17 m.

Type: Fishing. MMSI: 228222900.

Date/timePositionNaut miles runAvg speedWind from/ knotsBaromVisibWave heightAir tempDewpointWater temp
2017-Aug-18 18:09N 47°23' W 003°42'2 8.9
2017-Aug-18 17:55N 47°25' W 003°41'4 8.9
2017-Aug-18 17:31N 47°28' W 003°39'5 9.6
2017-Aug-18 17:00N 47°33' W 003°36'5 9.5
2017-Aug-18 16:30N 47°37' W 003°33'4 8.4
2017-Aug-18 16:01N 47°40' W 003°28'5 9.1
2017-Aug-18 15:30N 47°42' W 003°22'2 3.3
2017-Aug-18 15:00N 47°44' W 003°22'0 0.0
2017-Aug-18 14:30N 47°44' W 003°22'0 0.0
2017-Aug-18 13:30N 47°44' W 003°22'0 0.0
2017-Aug-18 13:00N 47°44' W 003°22'0 0.2
2017-Aug-18 12:31N 47°44' W 003°22'0 0.0
2017-Aug-16 14:34N 47°44' W 003°22'0 0.0
2017-Aug-16 14:30N 47°44' W 003°22'0 0.2
2017-Aug-16 14:00N 47°44' W 003°22'0 0.0
2017-Aug-16 13:30N 47°44' W 003°22'0 0.0
2017-Aug-16 13:00N 47°44' W 003°22'0 0.0
2017-Aug-16 12:30N 47°44' W 003°22'0 0.0
2017-Aug-16 12:00N 47°44' W 003°22'0 0.0
2017-Aug-16 11:30N 47°44' W 003°22'0 0.0
2017-Aug-16 11:00N 47°44' W 003°22'0 0.0
2017-Aug-16 10:30N 47°44' W 003°22'0 0.0
2017-Aug-16 10:00N 47°44' W 003°22'0 0.0
2017-Aug-16 09:30N 47°44' W 003°22'0 0.0
2017-Aug-16 09:00N 47°44' W 003°22'0 0.0
2017-Aug-16 08:30N 47°44' W 003°22'0 0.0
2017-Aug-16 08:00N 47°44' W 003°22'0 0.0
2017-Aug-16 07:30N 47°44' W 003°22'0 0.0
2017-Aug-16 07:00N 47°44' W 003°22'1 3.0
2017-Aug-16 06:30N 47°42' W 003°22'510.1
2017-Aug-16 06:00N 47°40' W 003°29'5 9.8
2017-Aug-16 05:30N 47°37' W 003°34'5 9.8
2017-Aug-16 05:00N 47°33' W 003°38'510.1
2017-Aug-16 04:30N 47°28' W 003°43'510.5
2017-Aug-16 04:00N 47°24' W 003°47'510.3
2017-Aug-16 03:30N 47°20' W 003°51'14 9.8
2017-Aug-16 02:06N 47°09' W 004°03'110.1
2017-Aug-16 02:00N 47°08' W 004°04'  
Track history (hours):
 
Tides and Currents Weather Stations Pressure Air Temp Water Temp Dewpoint Dewpoint Depression Visibility Wind Speed Wind Dir Waves Ship Positions

F/V Carmalia

Last reported at 2017-Aug-18 18:09 UTC. Time now 2017-Aug-19 20:27 UTC.
Position N 47°23' W 003°42'.

Length 17 m.

Type: Fishing. MMSI: 228222900.

Date/timePositionNaut miles runAvg speedWind from/ knotsBaromVisibWave heightAir tempDewpointWater temp
2017-Aug-18 18:09N 47°23' W 003°42'2 8.9
2017-Aug-18 17:55N 47°25' W 003°41'4 8.9
2017-Aug-18 17:31N 47°28' W 003°39'5 9.6
2017-Aug-18 17:00N 47°33' W 003°36'5 9.5
2017-Aug-18 16:30N 47°37' W 003°33'4 8.4
2017-Aug-18 16:01N 47°40' W 003°28'5 9.1
2017-Aug-18 15:30N 47°42' W 003°22'2 3.3
2017-Aug-18 15:00N 47°44' W 003°22'0 0.0
2017-Aug-18 14:30N 47°44' W 003°22'0 0.0
2017-Aug-18 13:30N 47°44' W 003°22'0 0.0
2017-Aug-18 13:00N 47°44' W 003°22'0 0.2
2017-Aug-18 12:31N 47°44' W 003°22'0 0.0
2017-Aug-16 14:34N 47°44' W 003°22'0 0.0
2017-Aug-16 14:30N 47°44' W 003°22'0 0.2
2017-Aug-16 14:00N 47°44' W 003°22'0 0.0
2017-Aug-16 13:30N 47°44' W 003°22'0 0.0
2017-Aug-16 13:00N 47°44' W 003°22'0 0.0
2017-Aug-16 12:30N 47°44' W 003°22'0 0.0
2017-Aug-16 12:00N 47°44' W 003°22'0 0.0
2017-Aug-16 11:30N 47°44' W 003°22'0 0.0
2017-Aug-16 11:00N 47°44' W 003°22'0 0.0
2017-Aug-16 10:30N 47°44' W 003°22'0 0.0
2017-Aug-16 10:00N 47°44' W 003°22'0 0.0
2017-Aug-16 09:30N 47°44' W 003°22'0 0.0
2017-Aug-16 09:00N 47°44' W 003°22'0 0.0
2017-Aug-16 08:30N 47°44' W 003°22'0 0.0
2017-Aug-16 08:00N 47°44' W 003°22'0 0.0
2017-Aug-16 07:30N 47°44' W 003°22'0 0.0
2017-Aug-16 07:00N 47°44' W 003°22'1 3.0
2017-Aug-16 06:30N 47°42' W 003°22'510.1
2017-Aug-16 06:00N 47°40' W 003°29'5 9.8
2017-Aug-16 05:30N 47°37' W 003°34'5 9.8
2017-Aug-16 05:00N 47°33' W 003°38'510.1
2017-Aug-16 04:30N 47°28' W 003°43'510.5
2017-Aug-16 04:00N 47°24' W 003°47'510.3
2017-Aug-16 03:30N 47°20' W 003°51'14 9.8
2017-Aug-16 02:06N 47°09' W 004°03'110.1
2017-Aug-16 02:00N 47°08' W 004°04'  

Dump ship's entire track history